Time;durP1;ratioP1;P1;durP2;ratioP2;P2;SDS_P1;SDS_P2;PMS_P1;PMS_P2;Temp;Humidity;BMP_temperature;BMP_pressure;BME280_temperature;BME280_humidity;BME280_pressure;Samples;Min_cycle;Max_cycle;Signal;HPM_P1;HPM_P2
2023/11/13 00:01:29;;;;;;;4.43;2.33;;;;;;;;;;5055195;28;20025;-88
2023/11/13 00:03:55;;;;;;;8.90;2.72;;;;;;;;;;5054918;28;20064;-88
2023/11/13 00:06:23;;;;;;;4.82;2.65;;;;;;;;;;5054478;28;20060;-88
2023/11/13 00:08:48;;;;;;;4.55;2.30;;;;;;;;;;5054972;28;20048;-88
2023/11/13 00:11:13;;;;;;;4.68;2.33;;;;;;;;;;5054843;28;20017;-88
2023/11/13 00:13:39;;;;;;;4.53;2.15;;;;;;;;;;5054626;28;20075;-88
2023/11/13 00:16:04;;;;;;;6.18;2.10;;;;;;;;;;5054430;28;20072;-88
2023/11/13 00:18:30;;;;;;;6.47;2.60;;;;;;;;;;5053805;28;20029;-87
2023/11/13 00:20:58;;;;;;;5.22;2.78;;;;;;;;;;5045554;28;20025;-87
2023/11/13 00:23:25;;;;;;;3.90;2.28;;;;;;;;;;5034130;28;20045;-88
2023/11/13 00:25:50;;;;;;;7.93;2.17;;;;;;;;;;5055726;28;20021;-88
2023/11/13 00:28:15;;;;;;;3.60;2.17;;;;;;;;;;5053753;28;20028;-88
2023/11/13 00:30:40;;;;;;;4.70;2.17;;;;;;;;;;5054023;28;20031;-88
2023/11/13 00:33:09;;;;;;;4.90;2.10;;;;;;;;;;5053985;28;20051;-88
2023/11/13 00:35:37;;;;;;;5.60;2.40;;;;;;;;;;5054025;28;20388;-88
2023/11/13 00:38:02;;;;;;;4.93;2.25;;;;;;;;;;5054210;28;20024;-88
2023/11/13 00:40:34;;;;;;;5.00;2.28;;;;;;;;;;5054251;28;20033;-88
2023/11/13 00:43:02;;;;;;;3.65;2.20;;;;;;;;;;5055484;28;20017;-88
2023/11/13 00:45:28;;;;;;;6.43;2.50;;;;;;;;;;5054156;28;20025;-86
2023/11/13 00:47:56;;;;;;;4.80;1.98;;;;;;;;;;5053868;28;20021;-87
2023/11/13 00:50:22;;;;;;;3.78;2.00;;;;;;;;;;5054117;28;20005;-88
2023/11/13 00:52:47;;;;;;;3.90;1.83;;;;;;;;;;5055338;28;20100;-87
2023/11/13 00:55:12;;;;;;;4.28;2.40;;;;;;;;;;5053327;28;20016;-88
2023/11/13 00:57:38;;;;;;;3.70;2.20;;;;;;;;;;5054077;28;20024;-88
2023/11/13 01:00:05;;;;;;;3.55;1.92;;;;;;;;;;5053966;28;20350;-88
2023/11/13 01:02:30;;;;;;;3.70;2.00;;;;;;;;;;5055330;28;20039;-88
2023/11/13 01:04:55;;;;;;;5.85;2.08;;;;;;;;;;5053583;28;20021;-88
2023/11/13 01:07:23;;;;;;;5.18;2.50;;;;;;;;;;5054057;28;20009;-88
2023/11/13 01:09:48;;;;;;;3.25;1.98;;;;;;;;;;5053891;28;20028;-87
2023/11/13 01:12:17;;;;;;;3.83;2.08;;;;;;;;;;5053723;28;20029;-88
2023/11/13 01:14:42;;;;;;;5.20;2.42;;;;;;;;;;5054964;28;20124;-86
2023/11/13 01:17:07;;;;;;;5.65;2.20;;;;;;;;;;5054771;28;20317;-87
2023/11/13 01:19:32;;;;;;;3.03;1.73;;;;;;;;;;5054320;28;20017;-88
2023/11/13 01:21:58;;;;;;;6.00;2.47;;;;;;;;;;5053347;28;20025;-86
2023/11/13 01:24:23;;;;;;;4.03;2.20;;;;;;;;;;5053053;28;20071;-88
2023/11/13 01:26:49;;;;;;;3.92;2.25;;;;;;;;;;5051248;28;20080;-87
2023/11/13 01:29:14;;;;;;;6.65;2.35;;;;;;;;;;5053206;28;20048;-87
2023/11/13 01:31:40;;;;;;;3.60;2.05;;;;;;;;;;5053718;28;20013;-87
2023/11/13 01:34:05;;;;;;;4.60;2.42;;;;;;;;;;5053130;28;20017;-88
2023/11/13 01:36:31;;;;;;;4.43;1.90;;;;;;;;;;5054376;28;20440;-87
2023/11/13 01:38:56;;;;;;;4.13;2.33;;;;;;;;;;5052944;28;20461;-86
2023/11/13 01:41:21;;;;;;;3.85;2.05;;;;;;;;;;5053398;28;20057;-87
2023/11/13 01:43:47;;;;;;;8.48;2.50;;;;;;;;;;5052893;28;20038;-87
2023/11/13 01:46:12;;;;;;;7.05;2.42;;;;;;;;;;5053103;28;20111;-88
2023/11/13 01:48:38;;;;;;;3.63;1.98;;;;;;;;;;5052532;28;20013;-87
2023/11/13 01:51:03;;;;;;;9.70;2.30;;;;;;;;;;5052538;28;20143;-87
2023/11/13 01:53:28;;;;;;;5.20;2.20;;;;;;;;;;5053038;28;20029;-87
2023/11/13 01:55:55;;;;;;;4.65;2.45;;;;;;;;;;5052621;28;20036;-87
2023/11/13 01:58:20;;;;;;;5.13;2.67;;;;;;;;;;5052419;28;20017;-87
2023/11/13 02:00:46;;;;;;;5.43;2.70;;;;;;;;;;5052967;28;20017;-86
2023/11/13 02:03:13;;;;;;;9.80;3.47;;;;;;;;;;5053752;28;20031;-88
2023/11/13 02:05:38;;;;;;;15.13;2.92;;;;;;;;;;5054036;28;20069;-88
2023/11/13 02:08:05;;;;;;;5.53;2.53;;;;;;;;;;5051453;28;20028;-88
2023/11/13 02:10:30;;;;;;;5.93;2.28;;;;;;;;;;5052614;28;20107;-88
2023/11/13 02:12:55;;;;;;;5.20;2.88;;;;;;;;;;5052883;28;20052;-88
2023/11/13 02:15:21;;;;;;;4.28;2.40;;;;;;;;;;5053461;28;20016;-87
2023/11/13 02:18:02;;;;;;;4.68;2.00;;;;;;;;;;5052375;28;20024;-87
2023/11/13 02:20:28;;;;;;;4.47;2.23;;;;;;;;;;5052427;28;20021;-88
2023/11/13 02:22:53;;;;;;;5.32;1.85;;;;;;;;;;5052025;28;20029;-87
2023/11/13 02:25:22;;;;;;;4.32;2.30;;;;;;;;;;5052007;28;20103;-88
2023/11/13 02:27:53;;;;;;;6.28;2.88;;;;;;;;;;5052098;28;20045;-87
2023/11/13 02:30:18;;;;;;;4.53;2.33;;;;;;;;;;5052162;28;20436;-87
2023/11/13 02:32:44;;;;;;;5.18;2.45;;;;;;;;;;5052056;28;20029;-87
2023/11/13 02:35:10;;;;;;;7.13;2.30;;;;;;;;;;5051952;28;20511;-88
2023/11/13 02:37:35;;;;;;;4.95;2.42;;;;;;;;;;5052208;28;20111;-87
2023/11/13 02:40:00;;;;;;;6.07;2.72;;;;;;;;;;5051910;28;20021;-87
2023/11/13 02:42:25;;;;;;;9.93;2.88;;;;;;;;;;5052367;28;20021;-87
2023/11/13 02:44:51;;;;;;;4.55;2.35;;;;;;;;;;5051707;28;20036;-88
2023/11/13 02:47:19;;;;;;;5.90;2.47;;;;;;;;;;5052164;28;20083;-87
2023/11/13 02:49:44;;;;;;;6.03;3.03;;;;;;;;;;5051612;28;20029;-87
2023/11/13 02:52:09;;;;;;;5.07;2.67;;;;;;;;;;5051858;28;20092;-88
2023/11/13 02:54:35;;;;;;;7.63;3.45;;;;;;;;;;5053168;28;20017;-87
2023/11/13 02:57:00;;;;;;;6.43;3.38;;;;;;;;;;5051055;28;20502;-87
2023/11/13 02:59:25;;;;;;;7.40;3.10;;;;;;;;;;5051373;28;20021;-87
2023/11/13 03:01:50;;;;;;;8.52;3.20;;;;;;;;;;5052005;28;20021;-88
2023/11/13 03:04:16;;;;;;;6.57;2.92;;;;;;;;;;5051169;28;20055;-87
2023/11/13 03:06:41;;;;;;;6.35;3.20;;;;;;;;;;5052774;28;20017;-88
2023/11/13 03:09:06;;;;;;;8.48;3.75;;;;;;;;;;5050912;28;20104;-88
2023/11/13 03:11:32;;;;;;;10.55;4.13;;;;;;;;;;5052971;28;20040;-87
2023/11/13 03:13:57;;;;;;;7.40;3.28;;;;;;;;;;5051404;28;20110;-88
2023/11/13 03:16:22;;;;;;;7.97;3.53;;;;;;;;;;5051061;28;20040;-87
2023/11/13 03:18:50;;;;;;;9.13;3.92;;;;;;;;;;5051037;28;20427;-87
2023/11/13 03:21:15;;;;;;;10.98;4.32;;;;;;;;;;5048910;28;20342;-88
2023/11/13 03:23:40;;;;;;;8.40;4.13;;;;;;;;;;5041553;28;20025;-87
2023/11/13 03:26:06;;;;;;;10.52;4.22;;;;;;;;;;5051253;28;20104;-88
2023/11/13 03:28:31;;;;;;;8.57;4.15;;;;;;;;;;5051473;28;20094;-87
2023/11/13 03:30:56;;;;;;;9.82;3.63;;;;;;;;;;5051488;28;20040;-88
2023/11/13 03:33:21;;;;;;;12.85;4.53;;;;;;;;;;5051014;28;20028;-87
2023/11/13 03:35:47;;;;;;;11.73;4.65;;;;;;;;;;5052401;28;20009;-87
2023/11/13 03:38:12;;;;;;;8.65;3.95;;;;;;;;;;5051671;28;20052;-88
2023/11/13 03:40:38;;;;;;;13.05;4.93;;;;;;;;;;5051303;28;20029;-87
2023/11/13 03:43:05;;;;;;;9.55;4.22;;;;;;;;;;5051413;28;20033;-88
2023/11/13 03:45:31;;;;;;;9.85;4.35;;;;;;;;;;5051111;28;20032;-87
2023/11/13 03:47:56;;;;;;;10.27;4.65;;;;;;;;;;5052431;28;20029;-87
2023/11/13 03:50:21;;;;;;;9.75;4.15;;;;;;;;;;5050863;28;20096;-87
2023/11/13 03:52:47;;;;;;;10.57;4.47;;;;;;;;;;5052630;28;20021;-87
2023/11/13 03:55:12;;;;;;;12.23;4.35;;;;;;;;;;5051685;28;20504;-88
2023/11/13 03:57:37;;;;;;;9.63;4.07;;;;;;;;;;5050986;28;20025;-87
2023/11/13 04:00:06;;;;;;;8.40;3.80;;;;;;;;;;5050828;28;20107;-87
2023/11/13 04:02:32;;;;;;;9.52;4.18;;;;;;;;;;5051382;28;20013;-87
2023/11/13 04:04:57;;;;;;;9.38;4.28;;;;;;;;;;5051100;28;20154;-87
2023/11/13 04:07:24;;;;;;;9.38;4.03;;;;;;;;;;5052125;28;20107;-87
2023/11/13 04:09:49;;;;;;;9.65;4.15;;;;;;;;;;5051177;28;20448;-87
2023/11/13 04:12:14;;;;;;;10.55;3.75;;;;;;;;;;5050795;28;20083;-87
2023/11/13 04:14:39;;;;;;;7.82;3.80;;;;;;;;;;5052166;28;20017;-87
2023/11/13 04:17:06;;;;;;;10.15;3.85;;;;;;;;;;5050951;28;20083;-87
2023/11/13 04:19:32;;;;;;;9.60;3.67;;;;;;;;;;5050300;28;20025;-88
2023/11/13 04:21:58;;;;;;;10.43;4.38;;;;;;;;;;5050754;28;20029;-87
2023/11/13 04:24:25;;;;;;;7.15;4.10;;;;;;;;;;5051893;28;20023;-88
2023/11/13 04:26:50;;;;;;;6.68;3.33;;;;;;;;;;5058640;28;20017;-88
2023/11/13 04:29:16;;;;;;;11.05;3.33;;;;;;;;;;5050695;28;20414;-88
2023/11/13 04:31:41;;;;;;;15.18;3.47;;;;;;;;;;5053057;28;20068;-87
2023/11/13 04:34:07;;;;;;;12.07;4.15;;;;;;;;;;5054106;28;20032;-87
2023/11/13 04:36:33;;;;;;;11.43;3.97;;;;;;;;;;5055476;28;20368;-87
2023/11/13 04:38:58;;;;;;;8.02;3.90;;;;;;;;;;5054419;28;20040;-87
2023/11/13 04:41:24;;;;;;;7.75;3.42;;;;;;;;;;5055495;28;20488;-87
2023/11/13 04:43:49;;;;;;;11.65;4.22;;;;;;;;;;5054068;28;20013;-87
2023/11/13 04:46:14;;;;;;;7.88;3.53;;;;;;;;;;5054396;28;20035;-87
2023/11/13 04:48:40;;;;;;;11.93;3.72;;;;;;;;;;5053609;28;20142;-86
2023/11/13 04:51:06;;;;;;;10.85;3.90;;;;;;;;;;5053417;28;20036;-86
2023/11/13 04:53:31;;;;;;;10.18;4.47;;;;;;;;;;5053424;28;20021;-87
2023/11/13 04:55:57;;;;;;;9.48;4.72;;;;;;;;;;5039558;28;20017;-87
2023/11/13 04:58:22;;;;;;;9.15;4.13;;;;;;;;;;5049925;28;20490;-87
2023/11/13 05:00:47;;;;;;;10.63;3.78;;;;;;;;;;5051097;28;20104;-86
2023/11/13 05:03:14;;;;;;;14.48;3.83;;;;;;;;;;5054615;28;20074;-86
2023/11/13 05:05:39;;;;;;;9.10;3.55;;;;;;;;;;5053746;28;20035;-86
2023/11/13 05:08:05;;;;;;;9.30;3.58;;;;;;;;;;5053798;28;20435;-86
2023/11/13 05:10:32;;;;;;;13.30;3.63;;;;;;;;;;5054935;28;20053;-86
2023/11/13 05:12:57;;;;;;;13.30;3.60;;;;;;;;;;5053373;28;20016;-86
2023/11/13 05:15:23;;;;;;;10.07;3.45;;;;;;;;;;5053120;28;20013;-86
2023/11/13 05:17:48;;;;;;;7.70;3.00;;;;;;;;;;5054222;28;20005;-87
2023/11/13 05:20:17;;;;;;;13.60;3.35;;;;;;;;;;5053303;28;20073;-86
2023/11/13 05:22:43;;;;;;;11.85;2.90;;;;;;;;;;5053377;28;20017;-86
2023/11/13 05:25:08;;;;;;;9.18;3.65;;;;;;;;;;5052971;28;20032;-86
2023/11/13 05:27:33;;;;;;;10.90;2.70;;;;;;;;;;5052706;28;20025;-86
2023/11/13 05:29:59;;;;;;;14.70;3.72;;;;;;;;;;5052451;28;20154;-87
2023/11/13 05:32:24;;;;;;;14.15;3.30;;;;;;;;;;5053310;28;20009;-86
2023/11/13 05:34:49;;;;;;;10.52;3.22;;;;;;;;;;5052802;28;20021;-86
2023/11/13 05:37:15;;;;;;;18.33;3.28;;;;;;;;;;5053166;28;20065;-86
2023/11/13 05:39:41;;;;;;;13.75;3.67;;;;;;;;;;5052435;28;20121;-87
2023/11/13 05:42:06;;;;;;;14.52;3.38;;;;;;;;;;5035298;28;20017;-86
2023/11/13 05:44:35;;;;;;;16.95;3.10;;;;;;;;;;5043407;28;20021;-86
2023/11/13 05:47:01;;;;;;;13.48;2.90;;;;;;;;;;5052941;28;20028;-86
2023/11/13 05:49:26;;;;;;;10.02;2.45;;;;;;;;;;5052343;28;20452;-86
2023/11/13 05:51:51;;;;;;;16.27;2.78;;;;;;;;;;5053071;28;20086;-86
2023/11/13 05:54:18;;;;;;;8.65;2.70;;;;;;;;;;5053825;28;20009;-87
2023/11/13 05:56:43;;;;;;;15.05;3.13;;;;;;;;;;5052710;28;20017;-87
2023/11/13 05:59:09;;;;;;;24.80;3.03;;;;;;;;;;5052319;28;20032;-86
2023/11/13 06:01:34;;;;;;;11.65;2.15;;;;;;;;;;5052027;28;20029;-86
2023/11/13 06:03:59;;;;;;;12.60;2.40;;;;;;;;;;5052883;28;20025;-86
2023/11/13 06:06:26;;;;;;;18.40;2.47;;;;;;;;;;5052454;28;20515;-86
2023/11/13 06:08:52;;;;;;;14.57;2.45;;;;;;;;;;5052554;28;20053;-87
2023/11/13 06:11:17;;;;;;;9.60;2.03;;;;;;;;;;5052348;28;20021;-86
2023/11/13 06:13:42;;;;;;;17.85;2.78;;;;;;;;;;5052570;28;20120;-86
2023/11/13 06:16:09;;;;;;;12.63;2.45;;;;;;;;;;5053001;28;20029;-87
2023/11/13 06:18:44;;;;;;;15.40;2.50;;;;;;;;;;5052201;28;20025;-86
2023/11/13 06:21:10;;;;;;;15.85;2.35;;;;;;;;;;5052085;28;20401;-86
2023/11/13 06:23:36;;;;;;;14.85;1.83;;;;;;;;;;5052196;28;20477;-86
2023/11/13 06:26:04;;;;;;;11.48;2.22;;;;;;;;;;5052002;28;20036;-86
2023/11/13 06:28:30;;;;;;;16.73;2.42;;;;;;;;;;5048405;28;20064;-86
2023/11/13 06:30:55;;;;;;;13.48;2.20;;;;;;;;;;5042394;28;20413;-86
2023/11/13 06:33:21;;;;;;;7.22;1.83;;;;;;;;;;5051826;28;20120;-85
2023/11/13 06:35:46;;;;;;;14.48;2.35;;;;;;;;;;5051861;28;20055;-86
2023/11/13 06:38:11;;;;;;;18.15;3.03;;;;;;;;;;5051817;28;20587;-86
2023/11/13 06:40:36;;;;;;;16.95;2.45;;;;;;;;;;5053031;28;20040;-86
2023/11/13 06:43:02;;;;;;;14.10;2.67;;;;;;;;;;5051970;28;20025;-86
2023/11/13 06:45:28;;;;;;;15.00;2.47;;;;;;;;;;5051784;28;20025;-86
2023/11/13 06:47:55;;;;;;;10.05;1.80;;;;;;;;;;5051892;28;20028;-86
2023/11/13 06:50:21;;;;;;;18.20;3.55;;;;;;;;;;5051910;28;20478;-86
2023/11/13 06:52:46;;;;;;;20.90;2.70;;;;;;;;;;5052557;28;20104;-86
2023/11/13 06:55:13;;;;;;;5.88;1.77;;;;;;;;;;5052280;28;20017;-85
2023/11/13 06:57:39;;;;;;;15.05;2.30;;;;;;;;;;5049707;28;20029;-86
2023/11/13 07:00:04;;;;;;;12.43;2.58;;;;;;;;;;5047051;28;20132;-85
2023/11/13 07:02:39;;;;;;;18.60;2.55;;;;;;;;;;5048369;28;20037;-86
2023/11/13 07:05:06;;;;;;;13.27;2.72;;;;;;;;;;5049756;28;20410;-86
2023/11/13 07:07:32;;;;;;;4.88;1.40;;;;;;;;;;5050918;28;20089;-86
2023/11/13 07:10:01;;;;;;;9.20;2.00;;;;;;;;;;5051428;28;20115;-86
2023/11/13 07:12:26;;;;;;;11.05;2.08;;;;;;;;;;5051700;28;20322;-87
2023/11/13 07:14:51;;;;;;;16.67;2.22;;;;;;;;;;5051128;28;20032;-86
2023/11/13 07:17:17;;;;;;;8.15;1.52;;;;;;;;;;5051109;28;20029;-86
2023/11/13 07:19:42;;;;;;;8.40;1.90;;;;;;;;;;5048543;28;20121;-86
2023/11/13 07:22:07;;;;;;;7.55;2.00;;;;;;;;;;5051203;28;20112;-86
2023/11/13 07:24:36;;;;;;;9.80;1.35;;;;;;;;;;5052221;28;20084;-86
2023/11/13 07:27:01;;;;;;;8.98;1.52;;;;;;;;;;5050279;28;20400;-86
2023/11/13 07:29:26;;;;;;;6.68;1.33;;;;;;;;;;5050919;28;20025;-87
2023/11/13 07:31:52;;;;;;;7.30;1.63;;;;;;;;;;5050894;28;20033;-87
2023/11/13 07:34:17;;;;;;;6.10;1.15;;;;;;;;;;5051961;28;20345;-87
2023/11/13 07:36:42;;;;;;;5.40;0.98;;;;;;;;;;5050856;28;20423;-87
2023/11/13 07:39:09;;;;;;;6.35;1.67;;;;;;;;;;5050780;28;20476;-87
2023/11/13 07:41:34;;;;;;;7.70;1.27;;;;;;;;;;5051364;28;20030;-86
2023/11/13 07:44:01;;;;;;;9.05;1.45;;;;;;;;;;5050496;28;20029;-87
2023/11/13 07:46:26;;;;;;;9.55;1.58;;;;;;;;;;5049801;28;20025;-87
2023/11/13 07:48:52;;;;;;;5.38;1.48;;;;;;;;;;5048606;28;20115;-86
2023/11/13 07:51:17;;;;;;;11.25;1.40;;;;;;;;;;5051524;28;20480;-86
2023/11/13 07:53:43;;;;;;;10.40;1.20;;;;;;;;;;5051735;28;20021;-87
2023/11/13 07:56:09;;;;;;;6.55;0.93;;;;;;;;;;5048594;28;20124;-86
2023/11/13 07:58:34;;;;;;;5.70;1.00;;;;;;;;;;5049794;28;20060;-87
2023/11/13 08:01:03;;;;;;;7.47;1.10;;;;;;;;;;5049802;28;20032;-87
2023/11/13 08:03:29;;;;;;;6.28;1.40;;;;;;;;;;5051643;28;20065;-87
2023/11/13 08:05:54;;;;;;;6.50;0.98;;;;;;;;;;5052945;28;20021;-87
2023/11/13 08:08:19;;;;;;;3.90;1.00;;;;;;;;;;5054631;28;20369;-87
2023/11/13 08:10:47;;;;;;;6.70;2.13;;;;;;;;;;5054405;28;20120;-87
2023/11/13 08:13:14;;;;;;;6.20;1.63;;;;;;;;;;5054705;28;20457;-86
2023/11/13 08:15:39;;;;;;;3.08;0.88;;;;;;;;;;5054595;28;20057;-87
2023/11/13 08:18:04;;;;;;;2.28;0.82;;;;;;;;;;5055658;28;20040;-87
2023/11/13 08:20:32;;;;;;;4.20;0.75;;;;;;;;;;5055713;28;20033;-86
2023/11/13 08:22:57;;;;;;;1.85;0.60;;;;;;;;;;5054617;28;20170;-86
2023/11/13 08:25:23;;;;;;;1.45;0.55;;;;;;;;;;5054572;28;20025;-87
2023/11/13 08:27:51;;;;;;;1.75;0.85;;;;;;;;;;5054546;28;20033;-86
2023/11/13 08:30:17;;;;;;;3.65;0.95;;;;;;;;;;5055858;28;20017;-88
2023/11/13 08:32:42;;;;;;;4.03;0.93;;;;;;;;;;5055678;28;20021;-86
2023/11/13 08:35:15;;;;;;;2.67;0.80;;;;;;;;;;5053778;28;20035;-87
2023/11/13 08:37:45;;;;;;;2.45;0.60;;;;;;;;;;5054131;28;20027;-87
2023/11/13 08:40:13;;;;;;;5.22;1.30;;;;;;;;;;5054261;28;20021;-87
2023/11/13 08:42:41;;;;;;;6.88;1.48;;;;;;;;;;5055904;28;20053;-86
2023/11/13 08:45:12;;;;;;;4.63;0.95;;;;;;;;;;5053410;28;20017;-86
2023/11/13 08:47:47;;;;;;;4.68;0.98;;;;;;;;;;5053878;28;20052;-87
2023/11/13 08:50:13;;;;;;;3.00;0.60;;;;;;;;;;5048479;28;20091;-87
2023/11/13 08:52:40;;;;;;;1.23;0.80;;;;;;;;;;5050694;28;20021;-87
2023/11/13 08:55:10;;;;;;;0.15;0.15;;;;;;;;;;5046800;28;20078;-87
2023/11/13 08:57:37;;;;;;;5.93;1.00;;;;;;;;;;5048856;28;20084;-87
2023/11/13 09:00:03;;;;;;;5.90;1.10;;;;;;;;;;5054100;28;20040;-86
2023/11/13 09:02:30;;;;;;;8.15;1.02;;;;;;;;;;5053866;28;20043;-86
2023/11/13 09:04:55;;;;;;;8.10;1.00;;;;;;;;;;5050568;28;20025;-87
2023/11/13 09:07:23;;;;;;;3.67;0.80;;;;;;;;;;5053573;28;20120;-87
2023/11/13 09:09:54;;;;;;;3.00;0.57;;;;;;;;;;5053830;28;20031;-89
2023/11/13 09:12:20;;;;;;;1.27;0.52;;;;;;;;;;5053921;28;20024;-87
2023/11/13 09:14:46;;;;;;;4.60;1.27;;;;;;;;;;5052963;28;20483;-88
2023/11/13 09:17:12;;;;;;;2.53;0.50;;;;;;;;;;5053028;28;20127;-88
2023/11/13 09:19:41;;;;;;;5.60;0.80;;;;;;;;;;5052838;28;20481;-88
2023/11/13 09:22:09;;;;;;;2.70;0.77;;;;;;;;;;5053698;28;20079;-88
2023/11/13 09:24:38;;;;;;;4.22;0.90;;;;;;;;;;5053184;28;20031;-88
2023/11/13 09:27:10;;;;;;;3.83;1.13;;;;;;;;;;5054807;28;20494;-87
2023/11/13 09:29:43;;;;;;;7.50;0.98;;;;;;;;;;5053265;28;20062;-87
2023/11/13 09:32:08;;;;;;;11.07;1.83;;;;;;;;;;5053124;28;20040;-86
2023/11/13 09:34:34;;;;;;;1.75;0.85;;;;;;;;;;5054461;28;20017;-87
2023/11/13 09:36:59;;;;;;;2.15;0.73;;;;;;;;;;5053172;28;20024;-87
2023/11/13 09:39:32;;;;;;;7.47;1.40;;;;;;;;;;5053106;28;20377;-87
2023/11/13 09:41:59;;;;;;;4.63;1.10;;;;;;;;;;5059109;28;20314;-87
2023/11/13 09:44:25;;;;;;;4.93;1.00;;;;;;;;;;5053242;28;20460;-88
2023/11/13 09:46:51;;;;;;;5.45;1.25;;;;;;;;;;5053244;28;20021;-88
2023/11/13 09:49:18;;;;;;;3.47;1.13;;;;;;;;;;5052650;28;20440;-86
2023/11/13 09:51:44;;;;;;;6.55;1.65;;;;;;;;;;5053103;28;20027;-87
2023/11/13 09:54:10;;;;;;;6.28;1.40;;;;;;;;;;5053856;28;20465;-88
2023/11/13 09:56:38;;;;;;;7.65;1.58;;;;;;;;;;5053032;28;20351;-87
2023/11/13 09:59:05;;;;;;;8.93;1.65;;;;;;;;;;5038847;28;20036;-88
2023/11/13 10:01:31;;;;;;;9.07;1.50;;;;;;;;;;5053065;28;20052;-87
2023/11/13 10:03:58;;;;;;;7.82;2.15;;;;;;;;;;5052609;28;20021;-87
2023/11/13 10:06:23;;;;;;;9.52;1.88;;;;;;;;;;5052214;28;20021;-87
2023/11/13 10:08:51;;;;;;;7.72;1.67;;;;;;;;;;5053894;28;20432;-87
2023/11/13 10:11:16;;;;;;;12.63;2.80;;;;;;;;;;5052633;28;20015;-88
2023/11/13 10:13:45;;;;;;;10.52;2.40;;;;;;;;;;5052476;28;20043;-88
2023/11/13 10:16:18;;;;;;;16.15;2.50;;;;;;;;;;5052137;28;20444;-87
2023/11/13 10:18:44;;;;;;;11.25;2.83;;;;;;;;;;5052563;28;20041;-88
2023/11/13 10:21:09;;;;;;;14.45;2.80;;;;;;;;;;5053004;28;20066;-88
2023/11/13 10:23:37;;;;;;;7.38;2.10;;;;;;;;;;5053194;28;20017;-88
2023/11/13 10:26:04;;;;;;;9.35;2.30;;;;;;;;;;5052176;28;20032;-88
2023/11/13 10:28:37;;;;;;;11.90;2.50;;;;;;;;;;5051332;28;20023;-88
2023/11/13 10:31:12;;;;;;;15.55;3.22;;;;;;;;;;5051875;28;20101;-88
2023/11/13 10:33:38;;;;;;;17.45;2.97;;;;;;;;;;5052003;28;20356;-88
2023/11/13 10:36:17;;;;;;;10.80;2.38;;;;;;;;;;5051758;28;20028;-88
2023/11/13 10:38:47;;;;;;;20.85;2.47;;;;;;;;;;5051470;28;20025;-88
2023/11/13 10:41:13;;;;;;;14.68;3.03;;;;;;;;;;5052162;28;20651;-88
2023/11/13 10:43:43;;;;;;;13.15;2.60;;;;;;;;;;5051878;28;20084;-89
2023/11/13 10:46:09;;;;;;;15.52;3.40;;;;;;;;;;5051867;28;20490;-88
2023/11/13 10:48:43;;;;;;;16.77;2.80;;;;;;;;;;5051207;28;20037;-88
2023/11/13 10:51:09;;;;;;;9.32;2.72;;;;;;;;;;5051322;28;20460;-88
2023/11/13 10:53:40;;;;;;;11.55;2.50;;;;;;;;;;5051278;28;20128;-89
2023/11/13 10:56:07;;;;;;;17.30;3.53;;;;;;;;;;5048037;28;20013;-89
2023/11/13 10:58:32;;;;;;;11.23;3.00;;;;;;;;;;5044924;28;20029;-88
2023/11/13 11:01:00;;;;;;;13.15;3.05;;;;;;;;;;5051127;28;20032;-87
2023/11/13 11:03:26;;;;;;;11.02;2.90;;;;;;;;;;5047325;28;20029;-88
2023/11/13 11:05:54;;;;;;;16.42;2.95;;;;;;;;;;5050962;28;20384;-88
2023/11/13 11:08:20;;;;;;;13.15;2.70;;;;;;;;;;5049728;28;20671;-88
2023/11/13 11:10:46;;;;;;;18.20;2.85;;;;;;;;;;5055413;28;20072;-88
2023/11/13 11:13:14;;;;;;;10.27;1.92;;;;;;;;;;5051014;28;20048;-88
2023/11/13 11:15:43;;;;;;;21.77;2.65;;;;;;;;;;5050410;28;20086;-88
2023/11/13 11:18:27;;;;;;;13.43;2.72;;;;;;;;;;5048592;28;20032;-88
2023/11/13 11:20:53;;;;;;;14.07;3.58;;;;;;;;;;5051063;28;20017;-88
2023/11/13 11:23:19;;;;;;;7.35;2.47;;;;;;;;;;5053584;28;20075;-89
2023/11/13 11:25:49;;;;;;;11.95;3.38;;;;;;;;;;5049668;28;20025;-87
2023/11/13 11:28:33;;;;;;;10.55;2.67;;;;;;;;;;5049246;28;20040;-87
2023/11/13 11:31:04;;;;;;;10.75;2.28;;;;;;;;;;5040722;28;20028;-88
2023/11/13 11:33:30;;;;;;;11.73;1.98;;;;;;;;;;5050872;28;20029;-88
2023/11/13 11:35:55;;;;;;;8.98;2.38;;;;;;;;;;5050414;28;20031;-88
2023/11/13 11:38:28;;;;;;;14.88;3.35;;;;;;;;;;5049675;28;20035;-88
2023/11/13 11:40:58;;;;;;;8.82;2.55;;;;;;;;;;5053906;28;20071;-88
2023/11/13 11:43:36;;;;;;;11.25;2.45;;;;;;;;;;5055536;28;20033;-88
2023/11/13 11:46:04;;;;;;;7.25;2.17;;;;;;;;;;5054693;28;20025;-87
2023/11/13 11:48:31;;;;;;;7.35;2.38;;;;;;;;;;5055739;28;20378;-87
2023/11/13 11:50:56;;;;;;;9.18;1.98;;;;;;;;;;5055299;28;20025;-88
2023/11/13 11:53:23;;;;;;;10.05;2.30;;;;;;;;;;5055578;28;20032;-88
2023/11/13 11:55:48;;;;;;;13.25;2.80;;;;;;;;;;5054955;28;20017;-88
2023/11/13 11:58:15;;;;;;;8.10;2.33;;;;;;;;;;5055432;28;20025;-88
2023/11/13 12:00:40;;;;;;;13.02;2.95;;;;;;;;;;5054737;28;20024;-89
2023/11/13 12:03:05;;;;;;;10.30;2.47;;;;;;;;;;5056180;28;20460;-88
2023/11/13 12:05:31;;;;;;;12.38;1.90;;;;;;;;;;5041826;28;20810;-87
2023/11/13 12:07:56;;;;;;;8.68;2.08;;;;;;;;;;5054866;28;20032;-88
2023/11/13 12:10:21;;;;;;;6.50;1.88;;;;;;;;;;5054839;28;20049;-88
2023/11/13 12:12:50;;;;;;;16.35;3.03;;;;;;;;;;5054655;28;20060;-87
2023/11/13 12:15:15;;;;;;;5.10;2.33;;;;;;;;;;5054676;28;20542;-88
2023/11/13 12:17:41;;;;;;;8.65;2.63;;;;;;;;;;5054909;28;20025;-88
2023/11/13 12:20:09;;;;;;;8.80;2.50;;;;;;;;;;5054109;28;20021;-87
2023/11/13 12:22:34;;;;;;;13.02;2.90;;;;;;;;;;5056038;28;20037;-88
2023/11/13 12:25:00;;;;;;;9.65;2.17;;;;;;;;;;5054248;28;20032;-87
2023/11/13 12:27:26;;;;;;;9.98;2.72;;;;;;;;;;5054922;28;20167;-88
2023/11/13 12:30:21;;;;;;;5.13;2.33;;;;;;;;;;5055472;28;20017;-87
2023/11/13 12:32:47;;;;;;;7.78;2.45;;;;;;;;;;5041683;28;20032;-88
2023/11/13 12:35:12;;;;;;;15.43;2.53;;;;;;;;;;5054136;28;20025;-88
2023/11/13 12:37:41;;;;;;;9.90;3.00;;;;;;;;;;5054187;28;20033;-87
2023/11/13 12:40:07;;;;;;;8.75;2.00;;;;;;;;;;5054520;28;20032;-89
2023/11/13 12:42:32;;;;;;;9.05;2.17;;;;;;;;;;5054797;28;20119;-87
2023/11/13 12:44:59;;;;;;;6.75;2.05;;;;;;;;;;5054439;28;20056;-88
2023/11/13 12:47:24;;;;;;;8.32;2.10;;;;;;;;;;5054180;28;20458;-87
2023/11/13 12:49:50;;;;;;;5.68;1.98;;;;;;;;;;5053918;28;20657;-88
2023/11/13 12:52:16;;;;;;;6.07;2.25;;;;;;;;;;5053276;28;20092;-88
2023/11/13 12:54:48;;;;;;;3.53;1.58;;;;;;;;;;5055187;28;20025;-88
2023/11/13 12:57:15;;;;;;;5.15;1.65;;;;;;;;;;5054072;28;20021;-88
2023/11/13 12:59:43;;;;;;;6.60;2.10;;;;;;;;;;5053894;28;20357;-88
2023/11/13 13:02:09;;;;;;;6.68;1.85;;;;;;;;;;5054117;28;20021;-87
2023/11/13 13:04:34;;;;;;;3.85;1.50;;;;;;;;;;5053742;28;20392;-88
2023/11/13 13:07:00;;;;;;;8.70;1.85;;;;;;;;;;5053904;28;20021;-87
2023/11/13 13:09:25;;;;;;;3.97;1.38;;;;;;;;;;5053738;28;20159;-88
2023/11/13 13:11:50;;;;;;;3.65;1.50;;;;;;;;;;5054837;28;20021;-88
2023/11/13 13:14:17;;;;;;;2.78;1.40;;;;;;;;;;5053649;28;20024;-88
2023/11/13 13:16:42;;;;;;;7.18;1.40;;;;;;;;;;5051268;28;20029;-88
2023/11/13 13:19:09;;;;;;;6.63;1.63;;;;;;;;;;5049264;28;20021;-87
2023/11/13 13:21:36;;;;;;;9.02;1.42;;;;;;;;;;5053587;28;20404;-87
2023/11/13 13:24:01;;;;;;;5.03;1.90;;;;;;;;;;5054235;28;20483;-88
2023/11/13 13:26:27;;;;;;;3.88;1.65;;;;;;;;;;5050443;28;20025;-88
2023/11/13 13:28:53;;;;;;;9.82;2.10;;;;;;;;;;5053377;28;20021;-88
2023/11/13 13:31:19;;;;;;;4.72;1.95;;;;;;;;;;5053418;28;20108;-87
2023/11/13 13:33:45;;;;;;;4.97;1.40;;;;;;;;;;5053154;28;20048;-87
2023/11/13 13:36:12;;;;;;;6.72;1.55;;;;;;;;;;5052626;28;20067;-87
2023/11/13 13:38:38;;;;;;;4.38;1.52;;;;;;;;;;5053328;28;20028;-88
2023/11/13 13:41:04;;;;;;;4.78;1.77;;;;;;;;;;5053208;28;20530;-87
2023/11/13 13:43:29;;;;;;;6.40;1.45;;;;;;;;;;5054555;28;20053;-88
2023/11/13 13:45:54;;;;;;;5.50;1.55;;;;;;;;;;5052921;28;20114;-87
2023/11/13 13:48:20;;;;;;;4.47;1.00;;;;;;;;;;5053033;28;20021;-87
2023/11/13 13:50:45;;;;;;;2.25;0.85;;;;;;;;;;5053585;28;20044;-87
2023/11/13 13:53:14;;;;;;;3.17;0.77;;;;;;;;;;5053861;28;20484;-87
2023/11/13 13:55:40;;;;;;;1.20;0.80;;;;;;;;;;5052508;28;20025;-86
2023/11/13 13:58:07;;;;;;;2.30;1.00;;;;;;;;;;5052531;28;20562;-87
2023/11/13 14:00:33;;;;;;;5.88;1.63;;;;;;;;;;5054068;28;20119;-87
2023/11/13 14:03:01;;;;;;;2.75;0.73;;;;;;;;;;5048259;28;20056;-87
2023/11/13 14:05:27;;;;;;;2.30;0.90;;;;;;;;;;5045123;28;20021;-88
2023/11/13 14:07:52;;;;;;;6.18;1.15;;;;;;;;;;5053342;28;20013;-87
2023/11/13 14:10:18;;;;;;;4.78;1.20;;;;;;;;;;5052236;28;20032;-87
2023/11/13 14:12:43;;;;;;;2.03;0.85;;;;;;;;;;5051831;28;20066;-87
2023/11/13 14:15:10;;;;;;;6.03;1.10;;;;;;;;;;5052023;28;20053;-88
2023/11/13 14:17:36;;;;;;;3.55;0.95;;;;;;;;;;5053889;28;20021;-87
2023/11/13 14:20:09;;;;;;;2.72;1.15;;;;;;;;;;5056222;28;20059;-88
2023/11/13 14:22:39;;;;;;;3.17;1.00;;;;;;;;;;5053025;28;20116;-89
2023/11/13 14:25:04;;;;;;;3.30;1.05;;;;;;;;;;5051970;28;20112;-88
2023/11/13 14:27:32;;;;;;;2.03;0.90;;;;;;;;;;5046714;28;20024;-88
2023/11/13 14:29:58;;;;;;;3.63;1.00;;;;;;;;;;5051488;28;20108;-89
2023/11/13 14:32:24;;;;;;;4.57;1.17;;;;;;;;;;5051893;28;20063;-88
2023/11/13 14:34:49;;;;;;;4.70;0.80;;;;;;;;;;5052647;28;20771;-88